createdAt,value
2023-02-09T00:01:07.796Z,14.93
2023-02-09T00:03:34.971Z,15.05
2023-02-09T00:06:02.726Z,15.02
2023-02-09T00:08:29.787Z,13.45
2023-02-09T00:10:56.563Z,15.30
2023-02-09T00:13:23.711Z,15.50
2023-02-09T00:15:59.015Z,14.75
2023-02-09T00:18:26.581Z,14.93
2023-02-09T00:20:57.829Z,13.93
2023-02-09T00:23:25.029Z,15.10
2023-02-09T00:25:52.687Z,15.25
2023-02-09T00:28:19.905Z,14.35
2023-02-09T00:30:47.311Z,15.52
2023-02-09T00:33:14.233Z,14.50
2023-02-09T00:35:41.905Z,14.75
2023-02-09T00:38:12.769Z,13.90
2023-02-09T00:40:40.402Z,14.32
2023-02-09T00:43:07.816Z,15.15
2023-02-09T00:45:34.644Z,15.52
2023-02-09T00:48:01.639Z,14.43
2023-02-09T00:50:29.156Z,14.25
2023-02-09T00:52:55.968Z,15.35
2023-02-09T00:55:23.260Z,15.27
2023-02-09T00:57:49.898Z,15.13
2023-02-09T01:00:17.134Z,14.15
2023-02-09T01:02:43.850Z,15.52
2023-02-09T01:05:10.486Z,15.15
2023-02-09T01:07:37.419Z,15.40
2023-02-09T01:10:04.545Z,16.38
2023-02-09T01:12:31.476Z,15.80
2023-02-09T01:14:58.332Z,15.40
2023-02-09T01:17:25.001Z,15.77
2023-02-09T01:19:53.169Z,16.02
2023-02-09T01:22:20.211Z,16.15
2023-02-09T01:24:47.303Z,15.70
2023-02-09T01:27:14.465Z,15.70
2023-02-09T01:29:41.180Z,16.58
2023-02-09T01:32:08.169Z,15.45
2023-02-09T01:34:34.886Z,16.33
2023-02-09T01:37:01.674Z,16.30
2023-02-09T01:39:28.390Z,16.52
2023-02-09T01:41:55.406Z,17.35
2023-02-09T01:44:22.017Z,16.00
2023-02-09T01:46:48.680Z,16.65
2023-02-09T01:49:26.163Z,17.08
2023-02-09T01:52:10.049Z,16.67
2023-02-09T01:54:42.226Z,16.50
2023-02-09T01:57:12.138Z,16.42
2023-02-09T01:59:40.434Z,16.88
2023-02-09T02:02:07.822Z,16.45
2023-02-09T02:04:35.034Z,16.48
2023-02-09T02:07:14.412Z,17.33
2023-02-09T02:09:41.069Z,17.27
2023-02-09T02:12:07.739Z,17.45
2023-02-09T02:14:39.353Z,17.60
2023-02-09T02:17:14.545Z,16.85
2023-02-09T02:19:55.114Z,16.38
2023-02-09T02:22:44.887Z,17.35
2023-02-09T02:25:14.342Z,17.38
2023-02-09T02:27:48.956Z,17.60
2023-02-09T02:30:45.639Z,17.30
2023-02-09T02:33:20.388Z,17.35
2023-02-09T02:36:09.543Z,17.05
2023-02-09T02:38:53.743Z,17.38
2023-02-09T02:41:25.354Z,17.35
2023-02-09T02:44:05.836Z,17.17
2023-02-09T02:46:53.272Z,16.15
2023-02-09T02:49:42.985Z,16.52
2023-02-09T02:52:10.533Z,18.30
2023-02-09T02:54:44.954Z,24.00
2023-02-09T02:57:23.582Z,15.38
2023-02-09T02:59:54.473Z,14.95
2023-02-09T03:02:30.874Z,14.52
2023-02-09T03:04:59.349Z,14.00
2023-02-09T03:07:26.195Z,13.50
2023-02-09T03:09:55.644Z,13.77
2023-02-09T03:12:33.423Z,12.85
2023-02-09T03:15:29.378Z,13.38
2023-02-09T03:18:10.486Z,12.48
2023-02-09T03:20:59.322Z,12.07
2023-02-09T03:23:32.437Z,11.70
2023-02-09T03:26:07.151Z,11.73
2023-02-09T03:28:35.720Z,11.98
2023-02-09T03:31:03.517Z,11.50
2023-02-09T03:33:32.162Z,11.43
2023-02-09T03:36:01.314Z,12.10
2023-02-09T03:38:28.297Z,12.38
2023-02-09T03:40:55.387Z,11.38
2023-02-09T03:43:42.149Z,11.63
2023-02-09T03:46:09.785Z,11.25
2023-02-09T03:48:36.728Z,11.38
2023-02-09T03:51:03.731Z,11.07
2023-02-09T03:53:30.507Z,11.98
2023-02-09T03:55:57.133Z,11.43
2023-02-09T03:58:24.002Z,10.80
2023-02-09T04:00:50.729Z,11.05
2023-02-09T04:03:17.477Z,11.23
2023-02-09T04:05:44.083Z,10.85
2023-02-09T04:08:10.734Z,11.30
2023-02-09T04:10:37.393Z,10.30
2023-02-09T04:13:04.026Z,10.77
2023-02-09T04:15:30.669Z,9.68
2023-02-09T04:17:57.458Z,10.80
2023-02-09T04:20:24.073Z,9.52
2023-02-09T04:22:50.734Z,10.82
2023-02-09T04:25:17.512Z,9.55
2023-02-09T04:27:44.194Z,10.45
2023-02-09T04:30:11.521Z,10.20
2023-02-09T04:32:38.249Z,9.38
2023-02-09T04:35:05.139Z,10.30
2023-02-09T04:37:31.808Z,10.23
2023-02-09T04:39:58.428Z,10.23
2023-02-09T04:42:25.224Z,10.10
2023-02-09T04:44:51.898Z,12.68
2023-02-09T04:47:18.579Z,12.98
2023-02-09T04:49:45.245Z,12.05
2023-02-09T04:52:12.021Z,12.45
2023-02-09T04:54:38.670Z,12.70
2023-02-09T04:57:23.902Z,12.90
2023-02-09T04:59:50.597Z,12.77
2023-02-09T05:02:17.254Z,13.05
2023-02-09T05:04:43.917Z,12.55
2023-02-09T05:07:10.700Z,12.82
2023-02-09T05:09:37.388Z,12.32
2023-02-09T05:12:04.330Z,12.85
2023-02-09T05:14:31.263Z,10.88
2023-02-09T05:16:58.001Z,11.52
2023-02-09T05:19:24.785Z,11.48
2023-02-09T05:21:51.452Z,11.55
2023-02-09T05:24:18.214Z,12.15
2023-02-09T05:26:44.873Z,11.90
2023-02-09T05:29:11.529Z,11.20
2023-02-09T05:31:38.378Z,11.23
2023-02-09T05:34:05.283Z,11.95
2023-02-09T05:36:31.957Z,11.13
2023-02-09T05:38:58.616Z,11.55
2023-02-09T05:41:43.935Z,12.23
2023-02-09T05:44:10.604Z,10.85
2023-02-09T05:46:37.294Z,10.75
2023-02-09T05:49:04.046Z,11.85
2023-02-09T05:51:30.723Z,10.80
2023-02-09T05:53:57.399Z,11.48
2023-02-09T05:56:24.067Z,10.88
2023-02-09T05:58:50.727Z,11.90
2023-02-09T06:01:17.429Z,12.73
2023-02-09T06:03:44.145Z,12.43
2023-02-09T06:06:10.842Z,12.27
2023-02-09T06:08:37.606Z,11.77
2023-02-09T06:11:06.061Z,12.57
2023-02-09T06:13:33.394Z,12.65
2023-02-09T06:16:01.456Z,11.82
2023-02-09T06:18:28.232Z,12.07
2023-02-09T06:20:54.930Z,11.65
2023-02-09T06:23:21.649Z,10.57
2023-02-09T06:25:52.954Z,12.02
2023-02-09T06:28:20.403Z,12.48
2023-02-09T06:30:51.482Z,12.68
2023-02-09T06:33:19.740Z,16.75
2023-02-09T06:35:46.903Z,16.08
2023-02-09T06:38:13.530Z,15.00
2023-02-09T06:40:40.239Z,13.45
2023-02-09T06:43:06.950Z,12.00
2023-02-09T06:45:33.569Z,12.75
2023-02-09T06:48:00.206Z,11.73
2023-02-09T06:50:27.064Z,12.25
2023-02-09T06:52:54.102Z,12.00
2023-02-09T06:55:20.783Z,11.98
2023-02-09T06:57:47.500Z,12.23
2023-02-09T07:00:14.722Z,11.68
2023-02-09T07:02:42.858Z,12.38
2023-02-09T07:05:10.348Z,11.80
2023-02-09T07:07:37.408Z,10.68
2023-02-09T07:10:05.091Z,11.85
2023-02-09T07:12:32.198Z,12.27
2023-02-09T07:14:58.947Z,10.95
2023-02-09T07:17:25.639Z,11.57
2023-02-09T07:19:52.277Z,11.70
2023-02-09T07:22:18.962Z,11.38
2023-02-09T07:24:45.639Z,12.20
2023-02-09T07:27:12.508Z,11.75
2023-02-09T07:29:39.189Z,12.15
2023-02-09T07:32:07.335Z,11.45
2023-02-09T07:34:34.940Z,11.55
2023-02-09T07:37:01.846Z,12.60
2023-02-09T07:39:28.594Z,12.55
2023-02-09T07:41:55.347Z,11.77
2023-02-09T07:44:22.426Z,12.10
2023-02-09T07:46:49.189Z,12.02
2023-02-09T07:49:15.847Z,11.77
2023-02-09T07:51:42.512Z,12.45
2023-02-09T07:54:13.392Z,12.65
2023-02-09T07:56:41.206Z,11.63
2023-02-09T07:59:09.411Z,12.98
2023-02-09T08:01:36.123Z,12.40
2023-02-09T08:04:02.822Z,12.52
2023-02-09T08:06:41.877Z,12.98
2023-02-09T08:09:10.058Z,13.02
2023-02-09T08:11:45.774Z,13.98
2023-02-09T08:14:31.568Z,12.88
2023-02-09T08:17:23.002Z,14.10
2023-02-09T08:20:03.183Z,13.50
2023-02-09T08:22:33.577Z,12.80
2023-02-09T08:25:00.941Z,13.45
2023-02-09T08:27:28.075Z,13.65
2023-02-09T08:29:54.792Z,13.88
2023-02-09T08:32:21.435Z,14.13
2023-02-09T08:34:48.105Z,15.88
2023-02-09T08:37:14.807Z,15.07
2023-02-09T08:39:41.513Z,14.07
2023-02-09T08:42:08.194Z,14.65
2023-02-09T08:44:34.844Z,14.45
2023-02-09T08:47:01.697Z,57.35
2023-02-09T08:49:28.366Z,23.50
2023-02-09T08:51:55.030Z,16.25
2023-02-09T08:54:21.713Z,15.07
2023-02-09T08:56:51.077Z,15.35
2023-02-09T08:59:19.989Z,15.05
2023-02-09T09:01:46.779Z,14.15
2023-02-09T09:04:13.575Z,14.63
2023-02-09T09:06:40.287Z,15.85
2023-02-09T09:09:07.059Z,17.30
2023-02-09T09:11:33.958Z,15.60
2023-02-09T09:14:00.616Z,15.05
2023-02-09T09:16:27.549Z,15.45
2023-02-09T09:18:54.278Z,15.55
2023-02-09T09:21:21.094Z,14.82
2023-02-09T09:23:48.147Z,15.65
2023-02-09T09:26:16.066Z,14.38
2023-02-09T09:28:42.898Z,16.10
2023-02-09T09:31:15.042Z,15.27
2023-02-09T09:33:42.468Z,14.40
2023-02-09T09:36:10.051Z,16.38
2023-02-09T09:38:37.599Z,14.93
2023-02-09T09:41:05.745Z,15.68
2023-02-09T09:43:37.628Z,15.82
2023-02-09T09:46:06.319Z,16.02
2023-02-09T09:48:51.686Z,14.48
2023-02-09T09:51:39.200Z,14.70
2023-02-09T09:54:12.897Z,14.98
2023-02-09T09:56:41.059Z,14.68
2023-02-09T09:59:21.543Z,15.32
2023-02-09T10:01:50.934Z,16.38
2023-02-09T10:04:17.729Z,15.20
2023-02-09T10:06:47.343Z,15.05
2023-02-09T10:09:36.081Z,14.80
2023-02-09T10:12:21.869Z,15.18
2023-02-09T10:14:48.673Z,15.27
2023-02-09T10:17:15.468Z,14.60
2023-02-09T10:19:42.214Z,14.48
2023-02-09T10:22:12.577Z,13.98
2023-02-09T10:24:40.651Z,14.00
2023-02-09T10:27:10.734Z,12.85
2023-02-09T10:29:37.554Z,13.80
2023-02-09T10:32:17.263Z,13.15
2023-02-09T10:34:51.464Z,13.13
2023-02-09T10:37:22.442Z,13.32
2023-02-09T10:40:13.843Z,13.68
2023-02-09T10:42:53.924Z,12.00
2023-02-09T10:45:26.865Z,12.68
2023-02-09T10:47:59.535Z,12.63
2023-02-09T10:50:26.269Z,12.70
2023-02-09T10:53:01.843Z,12.70
2023-02-09T10:55:37.980Z,19.85
2023-02-09T10:58:26.590Z,14.93
2023-02-09T11:01:11.732Z,12.43
2023-02-09T11:06:22.000Z,12.30
2023-02-09T11:08:53.123Z,12.63
2023-02-09T11:11:45.537Z,13.55
2023-02-09T11:14:19.640Z,11.88
2023-02-09T11:17:07.649Z,12.48
2023-02-09T11:19:46.230Z,13.07
2023-02-09T11:22:35.013Z,13.07
2023-02-09T11:25:27.864Z,12.52
2023-02-09T11:28:09.625Z,12.35
2023-02-09T11:31:07.780Z,12.00
2023-02-09T11:34:00.263Z,12.65
2023-02-09T11:36:32.786Z,13.27
2023-02-09T11:39:02.160Z,12.57
2023-02-09T11:41:52.797Z,11.55
2023-02-09T11:44:44.804Z,12.48
2023-02-09T11:47:15.507Z,11.85
2023-02-09T11:49:52.111Z,10.90
2023-02-09T11:52:25.011Z,11.20
2023-02-09T11:54:54.036Z,9.95
2023-02-09T11:57:31.604Z,10.60
2023-02-09T11:59:59.726Z,9.77
2023-02-09T12:02:51.744Z,8.63
2023-02-09T12:05:20.127Z,10.88
2023-02-09T12:08:21.589Z,11.20
2023-02-09T12:11:16.418Z,11.43
2023-02-09T12:14:11.236Z,10.85
2023-02-09T12:16:41.332Z,10.27
2023-02-09T12:19:25.312Z,10.40
2023-02-09T12:21:52.020Z,10.90
2023-02-09T12:24:34.118Z,10.65
2023-02-09T12:27:00.848Z,12.60
2023-02-09T12:29:39.746Z,12.10
2023-02-09T12:32:06.609Z,12.60
2023-02-09T12:34:42.316Z,12.50
2023-02-09T12:37:16.890Z,12.68
2023-02-09T12:40:11.646Z,13.32
2023-02-09T12:43:03.795Z,12.70
2023-02-09T12:45:44.253Z,11.57
2023-02-09T12:48:13.902Z,12.38
2023-02-09T12:50:43.631Z,12.30
2023-02-09T12:53:22.649Z,12.07
2023-02-09T12:56:03.939Z,11.65
2023-02-09T12:58:52.820Z,12.38
2023-02-09T13:01:19.555Z,12.10
2023-02-09T13:04:00.025Z,12.30
2023-02-09T13:06:36.818Z,12.52
2023-02-09T13:09:07.515Z,12.95
2023-02-09T13:11:49.243Z,12.30
2023-02-09T13:14:16.978Z,13.85
2023-02-09T13:17:02.321Z,13.82
2023-02-09T13:19:49.306Z,13.55
2023-02-09T13:22:25.335Z,11.82
2023-02-09T13:25:21.457Z,12.85
2023-02-09T13:27:49.862Z,12.80
2023-02-09T13:30:28.076Z,12.45
2023-02-09T13:33:02.743Z,13.10
2023-02-09T13:37:59.480Z,11.55
2023-02-09T13:40:31.304Z,12.40
2023-02-09T13:43:06.083Z,11.27
2023-02-09T13:45:33.014Z,11.73
2023-02-09T13:48:00.628Z,12.48
2023-02-09T13:50:29.200Z,11.05
2023-02-09T13:53:08.357Z,11.73
2023-02-09T13:55:37.650Z,10.30
2023-02-09T13:58:07.092Z,10.10
2023-02-09T14:00:45.709Z,9.93
2023-02-09T14:03:57.137Z,9.40
2023-02-09T14:06:54.288Z,10.20
2023-02-09T14:09:27.408Z,11.60
2023-02-09T14:11:57.182Z,11.35
2023-02-09T14:14:51.049Z,10.98
2023-02-09T14:17:32.321Z,12.95
2023-02-09T14:19:59.642Z,12.27
2023-02-09T14:22:37.840Z,11.80
2023-02-09T14:25:13.565Z,12.15
2023-02-09T14:27:41.038Z,11.48
2023-02-09T14:30:37.393Z,11.30
2023-02-09T14:33:04.415Z,11.48
2023-02-09T14:35:35.078Z,12.43
2023-02-09T14:38:03.335Z,11.65
2023-02-09T14:40:31.862Z,12.65
2023-02-09T14:43:10.628Z,12.88
2023-02-09T14:45:49.081Z,12.82
2023-02-09T14:48:21.125Z,12.60
2023-02-09T14:50:55.724Z,12.95
2023-02-09T14:53:24.660Z,12.10
2023-02-09T14:55:51.967Z,11.82
2023-02-09T14:58:21.522Z,12.60
2023-02-09T15:00:48.856Z,12.35
2023-02-09T15:03:15.710Z,13.00
2023-02-09T15:05:42.996Z,13.93
2023-02-09T15:08:15.714Z,12.35
2023-02-09T15:10:45.788Z,13.48
2023-02-09T15:13:14.243Z,13.20
2023-02-09T15:15:41.812Z,13.13
2023-02-09T15:18:22.007Z,13.55
2023-02-09T15:20:49.056Z,13.32
2023-02-09T15:23:16.130Z,13.10
2023-02-09T15:25:43.402Z,11.82
2023-02-09T15:28:28.349Z,12.27
2023-02-09T15:33:22.711Z,12.80
2023-02-09T15:35:50.013Z,13.18
2023-02-09T15:38:18.299Z,13.18
2023-02-09T15:41:08.149Z,13.27
2023-02-09T15:43:54.136Z,12.77
2023-02-09T15:46:39.626Z,13.35
2023-02-09T15:49:07.313Z,13.10
2023-02-09T15:51:36.559Z,13.25
2023-02-09T15:54:07.810Z,14.38
2023-02-09T15:56:36.193Z,13.50
2023-02-09T15:59:03.571Z,13.07
2023-02-09T16:01:34.383Z,13.95
2023-02-09T16:04:13.991Z,14.75
2023-02-09T16:06:46.522Z,14.25
2023-02-09T16:09:21.464Z,13.50
2023-02-09T16:11:48.453Z,15.13
2023-02-09T16:14:23.056Z,14.40
2023-02-09T16:16:50.519Z,14.13
2023-02-09T16:19:17.808Z,13.25
2023-02-09T16:21:47.322Z,13.50
2023-02-09T16:24:31.269Z,12.88
2023-02-09T16:27:00.012Z,14.23
2023-02-09T16:29:26.850Z,11.55
2023-02-09T16:31:53.634Z,12.60
2023-02-09T16:34:20.392Z,11.38
2023-02-09T16:36:48.719Z,13.35
2023-02-09T16:39:18.079Z,12.52
2023-02-09T16:41:50.562Z,12.57
2023-02-09T16:44:23.968Z,13.07
2023-02-09T16:46:53.112Z,13.23
2023-02-09T16:49:33.249Z,12.60
2023-02-09T16:52:13.547Z,12.63
2023-02-09T16:54:43.937Z,13.98
2023-02-09T16:57:13.347Z,13.40
2023-02-09T16:59:40.031Z,13.02
2023-02-09T17:02:26.030Z,13.88
2023-02-09T17:04:52.727Z,13.48
2023-02-09T17:07:19.594Z,13.93
2023-02-09T17:09:46.249Z,16.05
2023-02-09T17:12:12.954Z,14.10
2023-02-09T17:14:39.615Z,14.75
2023-02-09T17:17:07.266Z,13.55
2023-02-09T17:19:46.980Z,14.25
2023-02-09T17:22:14.715Z,21.73
2023-02-09T17:24:41.480Z,28.63
2023-02-09T17:27:09.294Z,17.60
2023-02-09T17:29:36.155Z,17.67
2023-02-09T17:32:03.462Z,17.65
2023-02-09T17:34:30.240Z,15.88
2023-02-09T17:36:57.974Z,12.40
2023-02-09T17:39:24.923Z,12.35
2023-02-09T17:41:51.681Z,12.75
2023-02-09T17:44:44.690Z,12.05
2023-02-09T17:47:20.074Z,12.85
2023-02-09T17:49:46.844Z,12.93
2023-02-09T17:52:17.946Z,12.77
2023-02-09T17:54:45.426Z,13.70
2023-02-09T17:57:14.207Z,11.82
2023-02-09T17:59:41.182Z,12.82
2023-02-09T18:02:15.695Z,12.57
2023-02-09T18:04:42.616Z,13.40
2023-02-09T18:07:10.135Z,12.82
2023-02-09T18:09:37.139Z,14.05
2023-02-09T18:12:10.270Z,12.60
2023-02-09T18:14:36.967Z,13.25
2023-02-09T18:17:03.990Z,12.65
2023-02-09T18:19:31.295Z,13.45
2023-02-09T18:22:00.113Z,14.48
2023-02-09T18:24:30.556Z,13.15
2023-02-09T18:26:57.558Z,12.63
2023-02-09T18:29:29.030Z,12.82
2023-02-09T18:31:57.255Z,12.98
2023-02-09T18:34:24.289Z,12.10
2023-02-09T18:36:50.955Z,13.07
2023-02-09T18:39:17.798Z,12.77
2023-02-09T18:41:46.256Z,17.55
2023-02-09T18:44:12.995Z,24.77
2023-02-09T18:46:41.396Z,18.33
2023-02-09T18:49:10.817Z,13.73
2023-02-09T18:51:37.505Z,12.63
2023-02-09T18:54:05.801Z,10.88
2023-02-09T18:56:32.580Z,12.52
2023-02-09T18:58:59.271Z,12.27
2023-02-09T19:01:26.000Z,12.35
2023-02-09T19:03:53.483Z,13.30
2023-02-09T19:06:21.476Z,12.80
2023-02-09T19:08:50.071Z,13.27
2023-02-09T19:11:18.717Z,12.75
2023-02-09T19:14:08.363Z,13.25
2023-02-09T19:16:40.937Z,13.23
2023-02-09T19:19:09.333Z,13.50
2023-02-09T19:21:36.210Z,14.05
2023-02-09T19:24:03.008Z,15.02
2023-02-09T19:26:29.973Z,16.50
2023-02-09T19:28:57.602Z,15.75
2023-02-09T19:31:24.850Z,15.82
2023-02-09T19:33:55.442Z,14.27
2023-02-09T19:36:22.728Z,13.50
2023-02-09T19:38:49.470Z,13.38
2023-02-09T19:41:16.788Z,12.38
2023-02-09T19:43:43.629Z,13.95
2023-02-09T19:46:10.443Z,13.48
2023-02-09T19:48:40.825Z,14.20
2023-02-09T19:51:08.387Z,14.15
2023-02-09T19:53:35.230Z,14.95
2023-02-09T19:56:02.092Z,14.95
2023-02-09T19:58:28.984Z,15.30
2023-02-09T20:00:56.043Z,15.23
2023-02-09T20:03:23.842Z,15.07
2023-02-09T20:05:51.039Z,15.80
2023-02-09T20:08:19.146Z,14.63
2023-02-09T20:10:46.355Z,15.02
2023-02-09T20:13:13.749Z,17.42
2023-02-09T20:15:42.179Z,16.15
2023-02-09T20:18:09.029Z,16.23
2023-02-09T20:20:36.029Z,17.45
2023-02-09T20:23:02.745Z,15.73
2023-02-09T20:25:30.006Z,17.48
2023-02-09T20:27:56.932Z,15.95
2023-02-09T20:30:23.855Z,17.13
2023-02-09T20:32:50.507Z,16.55
2023-02-09T20:35:17.708Z,17.30
2023-02-09T20:37:44.423Z,17.10
2023-02-09T20:40:11.783Z,18.42
2023-02-09T20:42:57.463Z,17.15
2023-02-09T20:45:43.196Z,16.55
2023-02-09T20:48:09.888Z,17.00
2023-02-09T20:50:36.547Z,16.23
2023-02-09T20:53:03.564Z,17.42
2023-02-09T20:55:30.505Z,16.63
2023-02-09T20:57:57.786Z,17.45
2023-02-09T21:00:24.536Z,16.35
2023-02-09T21:02:51.605Z,18.55
2023-02-09T21:05:18.389Z,17.83
2023-02-09T21:07:45.259Z,16.70
2023-02-09T21:10:12.965Z,16.88
2023-02-09T21:12:39.969Z,16.67
2023-02-09T21:15:07.111Z,16.27
2023-02-09T21:17:33.849Z,18.25
2023-02-09T21:20:01.239Z,17.73
2023-02-09T21:22:27.944Z,17.42
2023-02-09T21:24:54.795Z,17.42
2023-02-09T21:27:21.658Z,18.00
2023-02-09T21:29:48.360Z,16.75
2023-02-09T21:32:15.060Z,17.10
2023-02-09T21:34:42.877Z,17.50
2023-02-09T21:37:12.873Z,17.02
2023-02-09T21:39:40.457Z,17.83
2023-02-09T21:42:25.842Z,17.65
2023-02-09T21:44:54.870Z,16.73
2023-02-09T21:47:25.870Z,16.52
2023-02-09T21:49:52.621Z,17.30
2023-02-09T21:52:19.292Z,18.15
2023-02-09T21:54:45.950Z,18.00
2023-02-09T21:57:12.648Z,18.42
2023-02-09T21:59:39.299Z,17.33
2023-02-09T22:02:06.371Z,17.35
2023-02-09T22:04:33.413Z,18.50
2023-02-09T22:07:00.211Z,18.35
2023-02-09T22:09:27.014Z,17.15
2023-02-09T22:11:53.672Z,17.67
2023-02-09T22:14:20.410Z,19.65
2023-02-09T22:16:47.134Z,18.42
2023-02-09T22:19:14.021Z,19.90
2023-02-09T22:21:40.710Z,20.88
2023-02-09T22:24:07.501Z,20.27
2023-02-09T22:26:34.153Z,20.55
2023-02-09T22:29:00.849Z,21.75
2023-02-09T22:31:27.694Z,19.10
2023-02-09T22:33:54.704Z,17.80
2023-02-09T22:36:23.287Z,17.50
2023-02-09T22:38:50.374Z,18.10
2023-02-09T22:41:22.066Z,18.17
2023-02-09T22:43:57.918Z,17.17
2023-02-09T22:46:31.700Z,17.77
2023-02-09T22:49:00.965Z,18.15
2023-02-09T22:51:29.144Z,19.08
2023-02-09T22:53:56.931Z,18.60
2023-02-09T22:56:24.194Z,18.00
2023-02-09T22:58:53.337Z,18.60
2023-02-09T23:01:20.327Z,17.27
2023-02-09T23:03:47.071Z,18.55
2023-02-09T23:06:20.067Z,18.92
2023-02-09T23:08:47.194Z,18.52
2023-02-09T23:11:16.054Z,18.80
2023-02-09T23:13:42.855Z,17.90
2023-02-09T23:16:24.067Z,18.50
2023-02-09T23:18:59.836Z,19.15
2023-02-09T23:21:29.396Z,17.13
2023-02-09T23:23:56.387Z,17.73
2023-02-09T23:26:23.352Z,18.02
2023-02-09T23:28:56.882Z,18.58
2023-02-09T23:31:24.381Z,17.65
2023-02-09T23:33:51.429Z,18.35
2023-02-09T23:36:20.892Z,18.38
2023-02-09T23:38:47.640Z,18.00
2023-02-09T23:41:16.310Z,18.58
2023-02-09T23:43:43.478Z,17.70
2023-02-09T23:46:18.409Z,18.60
2023-02-09T23:48:45.904Z,19.15
2023-02-09T23:51:15.622Z,18.85
2023-02-09T23:53:42.305Z,17.88
2023-02-09T23:56:09.138Z,17.65
2023-02-09T23:58:37.934Z,15.77
